Time;durP1;ratioP1;P1;durP2;ratioP2;P2;SDS_P1;SDS_P2;PMS_P1;PMS_P2;Temp;Humidity;BMP_temperature;BMP_pressure;BME280_temperature;BME280_humidity;BME280_pressure;Samples;Min_cycle;Max_cycle;Signal;HPM_P1;HPM_P2
2022/12/26 00:02:06;;;;;;;8.87;7.97;;;;;;;2.75;100.00;96501.25;5010455;28;105200;-67
2022/12/26 00:04:33;;;;;;;10.07;8.10;;;;;;;2.67;100.00;96509.31;5009685;28;105437;-67
2022/12/26 00:07:00;;;;;;;9.13;8.20;;;;;;;2.68;100.00;96500.44;5010274;28;102186;-67
2022/12/26 00:09:29;;;;;;;9.87;7.50;;;;;;;2.67;100.00;96509.31;5010177;28;105272;-67
2022/12/26 00:11:56;;;;;;;8.70;7.70;;;;;;;2.54;100.00;96514.53;5009822;28;105178;-67
2022/12/26 00:14:23;;;;;;;9.00;7.80;;;;;;;2.57;100.00;96506.28;5010569;28;101816;-67
2022/12/26 00:16:49;;;;;;;8.30;7.40;;;;;;;2.56;100.00;96502.03;5010224;28;105077;-67
2022/12/26 00:19:16;;;;;;;9.93;8.70;;;;;;;2.57;100.00;96509.69;5013547;28;105227;-67
2022/12/26 00:21:43;;;;;;;8.83;7.37;;;;;;;2.55;100.00;96519.59;5010097;28;105099;-67
2022/12/26 00:24:11;;;;;;;8.83;7.80;;;;;;;2.45;100.00;96527.00;5009608;28;105107;-67
2022/12/26 00:26:40;;;;;;;8.97;8.10;;;;;;;2.50;100.00;96523.78;5010099;28;102547;-67
2022/12/26 00:29:07;;;;;;;8.00;7.20;;;;;;;2.49;100.00;96524.81;5009539;28;105187;-67
2022/12/26 00:31:35;;;;;;;8.90;8.00;;;;;;;2.51;100.00;96525.44;5009154;28;105548;-67
2022/12/26 00:34:03;;;;;;;8.90;8.00;;;;;;;2.40;100.00;96523.38;5010020;28;101899;-67
2022/12/26 00:36:31;;;;;;;10.43;8.13;;;;;;;2.46;100.00;96523.38;5010926;28;104838;-67
2022/12/26 00:39:00;;;;;;;8.23;7.43;;;;;;;2.45;100.00;96528.81;5010110;28;103766;-67
2022/12/26 00:41:28;;;;;;;8.40;7.07;;;;;;;2.29;100.00;96523.94;5012957;28;101817;-67
2022/12/26 00:43:57;;;;;;;8.20;7.30;;;;;;;2.28;100.00;96524.91;5009007;28;105021;-67
2022/12/26 00:46:25;;;;;;;8.03;7.20;;;;;;;2.31;100.00;96522.75;5009837;28;101824;-67
2022/12/26 00:48:52;;;;;;;8.63;7.50;;;;;;;2.30;100.00;96528.19;5009323;28;105115;-67
2022/12/26 00:51:19;;;;;;;7.83;6.97;;;;;;;2.35;100.00;96526.56;5008533;28;105402;-67
2022/12/26 00:53:47;;;;;;;9.00;6.63;;;;;;;2.21;100.00;96529.34;5010630;28;101828;-67
2022/12/26 00:56:14;;;;;;;10.37;7.33;;;;;;;2.26;100.00;96533.00;5009926;28;105177;-67
2022/12/26 00:58:42;;;;;;;8.33;7.47;;;;;;;2.10;100.00;96538.59;5009174;28;104885;-67
2022/12/26 01:01:14;;;;;;;8.60;7.70;;;;;;;2.27;100.00;96533.81;5009011;28;101976;-67
2022/12/26 01:03:42;;;;;;;9.53;7.47;;;;;;;2.35;100.00;96538.91;5012388;28;105446;-67
2022/12/26 01:06:09;;;;;;;9.53;7.17;;;;;;;2.26;100.00;96535.63;5009049;28;101891;-67
2022/12/26 01:08:36;;;;;;;7.83;7.03;;;;;;;2.19;100.00;96529.53;5008955;28;105254;-67
2022/12/26 01:11:06;;;;;;;7.63;6.83;;;;;;;2.29;100.00;96531.81;5008786;28;105648;-67
2022/12/26 01:13:33;;;;;;;7.33;6.60;;;;;;;2.26;100.00;96527.75;5009402;28;101944;-67
2022/12/26 01:16:01;;;;;;;7.03;6.33;;;;;;;2.09;100.00;96534.31;5008478;28;103653;-67
2022/12/26 01:18:30;;;;;;;7.30;6.60;;;;;;;2.06;100.00;96542.59;5008727;28;104031;-67
2022/12/26 01:21:01;;;;;;;6.80;6.20;;;;;;;2.04;100.00;96547.22;5010772;28;101863;-67
2022/12/26 01:23:29;;;;;;;7.03;6.33;;;;;;;2.04;100.00;96552.47;5008980;28;105217;-67
2022/12/26 01:25:56;;;;;;;6.97;6.00;;;;;;;2.18;100.00;96548.09;5012186;28;105743;-67
2022/12/26 01:28:23;;;;;;;6.90;6.20;;;;;;;2.24;100.00;96552.56;5008738;28;105280;-67
2022/12/26 01:30:50;;;;;;;7.60;6.30;;;;;;;2.31;100.00;96553.41;5008103;28;104235;-67
2022/12/26 01:33:17;;;;;;;7.43;5.80;;;;;;;2.16;100.00;96548.28;5008679;28;102218;-67
2022/12/26 01:35:53;;;;;;;6.70;6.00;;;;;;;2.15;100.00;96551.94;5008810;28;105158;-67
2022/12/26 01:38:20;;;;;;;6.43;5.83;;;;;;;2.23;100.00;96548.31;5008530;28;105474;-67
2022/12/26 01:40:48;;;;;;;7.50;6.70;;;;;;;2.28;100.00;96540.66;5009249;28;102018;-67
2022/12/26 01:43:48;;;;;;;7.07;6.33;;;;;;;2.16;100.00;96548.28;5007900;28;105079;-67
2022/12/26 01:46:17;;;;;;;7.03;6.33;;;;;;;2.19;100.00;96547.09;5008520;28;105256;-67
2022/12/26 01:48:45;;;;;;;6.67;6.07;;;;;;;2.17;100.00;96543.84;5012381;28;101839;-67
2022/12/26 01:51:14;;;;;;;5.97;5.37;;;;;;;2.22;100.00;96547.50;5007920;28;105119;-67
2022/12/26 01:53:47;;;;;;;8.33;6.20;;;;;;;2.23;100.00;96540.44;5008609;28;101899;-67
2022/12/26 01:56:18;;;;;;;6.60;5.93;;;;;;;2.19;100.00;96553.13;5008679;28;104953;-67
2022/12/26 01:58:50;;;;;;;6.70;6.10;;;;;;;2.14;100.00;96547.66;5007768;28;105566;-67
2022/12/26 02:01:20;;;;;;;6.33;5.73;;;;;;;2.17;100.00;96552.53;5010182;28;102094;-67
2022/12/26 02:06:34;;;;;;;6.40;5.80;;;;;;;2.11;100.00;96545.44;5008361;28;105560;-67
2022/12/26 02:09:02;;;;;;;7.33;6.40;;;;;;;2.19;100.00;96541.84;5011581;28;101893;-67
2022/12/26 02:11:34;;;;;;;7.37;6.50;;;;;;;2.07;100.00;96540.78;5008998;28;103434;-67
2022/12/26 02:14:02;;;;;;;6.57;5.97;;;;;;;2.03;100.00;96542.97;5008575;28;101813;-67
2022/12/26 02:16:29;;;;;;;6.53;5.90;;;;;;;1.96;100.00;96539.50;5008230;28;105241;-67
2022/12/26 02:18:56;;;;;;;7.10;6.00;;;;;;;2.00;100.00;96545.16;5007546;28;104557;-67
2022/12/26 02:21:51;;;;;;;7.17;6.00;;;;;;;1.93;100.00;96541.69;5008416;28;102126;-67
2022/12/26 02:24:57;;;;;;;6.60;5.90;;;;;;;1.88;100.00;96544.09;5008982;28;105617;-67
2022/12/26 02:27:54;;;;;;;7.00;6.10;;;;;;;1.84;100.00;96548.09;5009047;28;105490;-67
2022/12/26 02:30:35;;;;;;;6.80;5.77;;;;;;;1.83;100.00;96539.44;5005627;28;102118;-67
2022/12/26 02:33:39;;;;;;;7.83;6.50;;;;;;;1.78;100.00;96544.44;5014621;28;104969;-67
2022/12/26 02:36:34;;;;;;;6.97;5.63;;;;;;;1.74;100.00;96542.38;4998867;28;101934;-67
2022/12/26 02:39:13;;;;;;;6.67;6.07;;;;;;;1.72;100.00;96544.38;5011339;28;105589;-67
2022/12/26 02:41:47;;;;;;;7.33;6.07;;;;;;;1.81;100.00;96540.63;5012532;28;104429;-67
2022/12/26 02:47:14;;;;;;;6.80;6.07;;;;;;;1.83;100.00;96538.63;5011164;28;103885;-67
2022/12/26 03:13:11;;;;;;;6.73;5.40;;;;;;;1.50;100.00;96519.25;5010561;28;105266;-67
2022/12/26 03:18:29;;;;;;;5.73;5.17;;;;;;;1.44;100.00;96530.50;5013009;28;102827;-67
2022/12/26 03:20:59;;;;;;;5.73;5.23;;;;;;;1.37;100.00;96524.41;5010685;28;105369;-67
2022/12/26 03:23:28;;;;;;;5.47;4.97;;;;;;;1.40;100.00;96530.06;5014009;28;101824;-66
2022/12/26 03:28:43;;;;;;;5.53;5.03;;;;;;;1.45;100.00;96522.44;5010607;28;101901;-67
2022/12/26 03:31:11;;;;;;;7.37;5.80;;;;;;;1.31;100.00;96518.09;5010601;28;105386;-67
2022/12/26 03:36:36;;;;;;;6.33;5.50;;;;;;;1.36;100.00;96512.28;5012414;28;101682;-67
2022/12/26 03:39:15;;;;;;;6.43;5.70;;;;;;;1.42;100.00;96516.78;5009611;28;105438;-67
2022/12/26 04:44:23;;;;;;;7.13;5.97;;;;;;;1.16;100.00;96527.03;5009415;28;101925;-66
2022/12/26 04:46:52;;;;;;;7.77;6.33;;;;;;;1.28;100.00;96520.28;5009520;28;105555;-66
2022/12/26 04:52:06;;;;;;;7.07;6.37;;;;;;;1.34;100.00;96541.31;5008378;28;102401;-66
2022/12/26 04:54:34;;;;;;;7.13;6.03;;;;;;;1.44;100.00;96533.09;5009596;28;105410;-66
2022/12/26 04:57:01;;;;;;;6.10;5.60;;;;;;;1.32;100.00;96552.97;5008915;28;105515;-66
2022/12/26 04:59:29;;;;;;;7.20;6.07;;;;;;;1.40;100.00;96550.19;5012994;28;101990;-66
2022/12/26 05:10:20;;;;;;;6.63;5.97;;;;;;;1.51;100.00;96562.78;5008481;28;103970;-66
2022/12/26 05:12:47;;;;;;;6.20;4.57;;;;;;;1.57;100.00;96562.00;5008989;28;101788;-66
2022/12/26 05:15:15;;;;;;;6.77;6.07;;;;;;;1.69;100.00;96556.06;5009254;28;105403;-66
2022/12/26 05:28:52;;;;;;;5.27;4.77;;;;;;;1.62;100.00;96591.09;5008551;28;105253;-67
2022/12/26 05:31:21;;;;;;;5.20;4.70;;;;;;;1.60;100.00;96591.28;5010328;28;103109;-67
2022/12/26 05:34:04;;;;;;;4.67;4.27;;;;;;;2.10;100.00;96584.97;5009001;28;101898;-67
2022/12/26 05:36:36;;;;;;;5.23;4.77;;;;;;;1.76;100.00;96590.19;5008706;28;105701;-67
2022/12/26 05:39:03;;;;;;;4.33;3.93;;;;;;;1.65;100.00;96602.00;5007926;28;105679;-67
2022/12/26 05:41:30;;;;;;;5.20;4.60;;;;;;;1.38;100.00;96609.84;5008322;28;102238;-67
2022/12/26 05:43:57;;;;;;;4.83;4.33;;;;;;;1.59;100.00;96604.59;5008577;28;104845;-67
2022/12/26 05:46:25;;;;;;;4.77;4.27;;;;;;;1.57;100.00;96601.31;5011489;28;104982;-67
2022/12/26 05:48:52;;;;;;;4.97;4.30;;;;;;;1.63;100.00;96600.56;5008546;28;105202;-67
2022/12/26 05:51:19;;;;;;;5.00;4.50;;;;;;;1.34;100.00;96614.66;5007875;28;105141;-67
2022/12/26 05:53:47;;;;;;;4.97;4.57;;;;;;;1.32;100.00;96602.75;5008150;28;101960;-67
2022/12/26 05:56:16;;;;;;;5.07;4.57;;;;;;;1.37;100.00;96614.25;5008448;28;104861;-67
2022/12/26 05:58:43;;;;;;;5.03;4.53;;;;;;;1.67;100.00;96617.53;5007664;28;105080;-67
2022/12/26 06:01:12;;;;;;;5.65;5.15;;;;;;;1.89;100.00;96608.63;5008295;28;102270;-67
2022/12/26 06:03:42;;;;;;;5.53;4.97;;;;;;;1.91;100.00;96625.78;5011577;28;105473;-67
2022/12/26 06:06:09;;;;;;;6.83;5.67;;;;;;;2.05;100.00;96619.66;5011251;28;105928;-67
2022/12/26 06:08:37;;;;;;;5.93;5.30;;;;;;;1.84;100.00;96619.72;5015084;28;101878;-67
2022/12/26 06:11:05;;;;;;;5.43;4.93;;;;;;;1.80;100.00;96617.66;5011184;28;105591;-67
2022/12/26 06:13:32;;;;;;;5.90;5.30;;;;;;;1.69;100.00;96623.44;5011425;28;101900;-67
2022/12/26 06:15:59;;;;;;;5.47;4.97;;;;;;;1.73;100.00;96614.97;5013265;28;101704;-67
2022/12/26 06:18:26;;;;;;;5.33;4.90;;;;;;;1.44;100.00;96622.19;5011011;28;103966;-67
2022/12/26 06:20:54;;;;;;;5.57;4.70;;;;;;;1.67;100.00;96618.38;5011637;28;101872;-67
2022/12/26 06:23:21;;;;;;;5.53;4.80;;;;;;;2.00;100.00;96608.09;5011208;28;104958;-67
2022/12/26 06:25:54;;;;;;;5.43;5.00;;;;;;;2.02;100.00;96619.22;5012255;28;102517;-67
2022/12/26 06:28:21;;;;;;;5.37;4.87;;;;;;;2.18;100.00;96608.44;5011190;28;101740;-67
2022/12/26 06:30:48;;;;;;;5.90;5.30;;;;;;;2.18;100.00;96635.47;5014174;28;104989;-67
2022/12/26 06:33:15;;;;;;;9.23;6.40;;;;;;;2.58;100.00;96620.75;5011148;28;102307;-67
2022/12/26 06:35:42;;;;;;;6.00;5.17;;;;;;;2.46;100.00;96620.47;5012988;28;102330;-67
2022/12/26 06:38:11;;;;;;;6.57;5.70;;;;;;;2.64;100.00;96625.22;5010689;28;105211;-67
2022/12/26 06:40:39;;;;;;;88.27;67.73;;;;;;;2.81;100.00;96621.25;5011026;28;101859;-67
2022/12/26 06:43:06;;;;;;;7.43;6.10;;;;;;;3.03;100.00;96620.94;5010217;28;105562;-67
2022/12/26 06:45:33;;;;;;;9.33;6.70;;;;;;;3.17;100.00;96627.81;5010633;28;105033;-67
2022/12/26 06:48:00;;;;;;;10.20;7.77;;;;;;;3.27;100.00;96619.59;5010874;28;101896;-67
2022/12/26 06:50:27;;;;;;;19.93;14.20;;;;;;;3.20;100.00;96622.19;5013959;28;104950;-67
2022/12/26 06:52:54;;;;;;;13.10;8.57;;;;;;;3.30;100.00;96606.84;5009831;28;101849;-67
2022/12/26 06:55:22;;;;;;;12.43;10.87;;;;;;;3.16;100.00;96620.94;5011049;28;104871;-67
2022/12/26 06:57:51;;;;;;;8.43;6.90;;;;;;;3.23;100.00;96615.72;5009463;28;105273;-67
2022/12/26 07:00:19;;;;;;;6.47;5.17;;;;;;;3.27;100.00;96617.75;5010941;28;101955;-67
2022/12/26 07:02:50;;;;;;;11.30;10.20;;;;;;;3.29;100.00;96620.19;5010742;28;105033;-67
2022/12/26 07:05:17;;;;;;;6.33;4.80;;;;;;;3.35;100.00;96624.63;5009430;28;105860;-67
2022/12/26 07:07:43;;;;;;;8.70;7.67;;;;;;;3.24;100.00;96618.16;5010664;28;101955;-67
2022/12/26 07:10:10;;;;;;;7.90;7.10;;;;;;;3.26;100.00;96626.63;5011079;28;104870;-67
2022/12/26 07:12:51;;;;;;;8.00;7.20;;;;;;;3.32;100.00;96638.97;5014004;28;105268;-67
2022/12/26 07:15:18;;;;;;;4.27;3.83;;;;;;;3.53;100.00;96627.47;5010641;28;104935;-67
2022/12/26 07:17:45;;;;;;;5.77;5.23;;;;;;;3.47;100.00;96620.41;5010572;28;105447;-67
2022/12/26 07:20:12;;;;;;;4.37;3.97;;;;;;;3.68;100.00;96636.00;5012684;28;101778;-67
2022/12/26 07:22:41;;;;;;;5.30;4.80;;;;;;;3.69;100.00;96627.91;5012059;28;102406;-67
2022/12/26 07:25:09;;;;;;;7.73;6.27;;;;;;;3.69;100.00;96627.09;5010256;28;105147;-67
2022/12/26 07:27:38;;;;;;;14.63;13.13;;;;;;;3.68;100.00;96614.97;5010308;28;102194;-67
2022/12/26 07:30:08;;;;;;;8.87;7.97;;;;;;;3.71;100.00;96619.84;5009937;28;104881;-67
2022/12/26 07:32:37;;;;;;;5.87;5.23;;;;;;;3.80;100.00;96608.91;5010168;28;105023;-67
2022/12/26 07:35:05;;;;;;;6.77;6.10;;;;;;;3.87;100.00;96609.69;5014160;28;101890;-67
2022/12/26 07:37:32;;;;;;;4.87;4.47;;;;;;;3.89;100.00;96610.31;5010015;28;105455;-67
2022/12/26 07:39:58;;;;;;;4.37;3.97;;;;;;;3.93;100.00;96608.88;5010602;28;102159;-67
2022/12/26 07:42:28;;;;;;;4.63;4.13;;;;;;;3.90;100.00;96606.66;5010691;28;103582;-67
2022/12/26 07:44:55;;;;;;;6.13;4.93;;;;;;;3.94;100.00;96610.50;5010273;28;105439;-67
2022/12/26 07:47:24;;;;;;;4.90;4.40;;;;;;;4.05;100.00;96601.97;5010769;28;101981;-67
2022/12/26 07:49:50;;;;;;;4.53;4.17;;;;;;;4.07;100.00;96599.97;5011896;28;102337;-67
2022/12/26 07:52:18;;;;;;;5.57;4.77;;;;;;;4.18;100.00;96593.25;5009838;28;105715;-67
2022/12/26 07:54:45;;;;;;;4.53;4.13;;;;;;;4.21;100.00;96591.03;5010621;28;101844;-67
2022/12/26 07:57:12;;;;;;;4.90;4.50;;;;;;;4.25;100.00;96586.97;5013284;28;105153;-67
2022/12/26 07:59:39;;;;;;;10.93;7.37;;;;;;;4.37;100.00;96589.78;5010521;28;101899;-67
2022/12/26 08:02:10;;;;;;;21.23;11.47;;;;;;;4.41;100.00;96583.91;5010305;28;104033;-67
2022/12/26 08:04:39;;;;;;;6.80;5.10;;;;;;;4.45;100.00;96581.66;5009086;28;105064;-67
2022/12/26 08:07:06;;;;;;;5.13;4.60;;;;;;;4.58;100.00;96576.34;5009629;28;101911;-67
2022/12/26 08:09:33;;;;;;;6.57;5.10;;;;;;;4.69;100.00;96579.13;5009345;28;105558;-67
2022/12/26 08:11:59;;;;;;;5.43;4.50;;;;;;;4.87;100.00;96578.44;5008590;28;105484;-67
2022/12/26 08:14:26;;;;;;;4.10;3.70;;;;;;;4.97;100.00;96576.19;5009690;28;101865;-67
2022/12/26 08:16:53;;;;;;;3.93;3.43;;;;;;;5.04;100.00;96579.56;5005413;28;104273;-67
2022/12/26 08:19:20;;;;;;;3.60;3.30;;;;;;;5.08;100.00;96575.50;5006482;28;105936;-67
2022/12/26 08:21:48;;;;;;;3.10;2.80;;;;;;;5.23;100.00;96570.75;5009407;28;104971;-67
2022/12/26 08:24:15;;;;;;;2.63;2.43;;;;;;;5.32;100.00;96564.19;5008930;28;105710;-67
2022/12/26 08:26:42;;;;;;;2.50;2.30;;;;;;;5.42;100.00;96557.44;5006171;28;102100;-67
2022/12/26 08:29:10;;;;;;;4.40;4.00;;;;;;;5.54;100.00;96562.81;4989127;28;105508;-67
2022/12/26 08:31:37;;;;;;;10.87;8.03;;;;;;;5.67;100.00;96568.00;5001217;28;105691;-67
2022/12/26 08:34:04;;;;;;;3.50;3.20;;;;;;;5.75;100.00;96554.53;4989034;28;101961;-67
2022/12/26 08:36:31;;;;;;;6.80;6.10;;;;;;;5.86;100.00;96567.06;5004443;28;105770;-67
2022/12/26 08:39:00;;;;;;;4.00;3.70;;;;;;;6.02;100.00;96563.84;5008416;28;105625;-67
2022/12/26 08:41:27;;;;;;;3.00;2.70;;;;;;;6.12;100.00;96567.59;4992703;28;101804;-67
2022/12/26 08:43:54;;;;;;;2.90;2.70;;;;;;;6.18;100.00;96565.94;5001592;28;105025;-67
2022/12/26 08:46:22;;;;;;;2.17;1.80;;;;;;;6.24;100.00;96565.06;5009025;28;101939;-67
2022/12/26 08:48:50;;;;;;;2.27;2.13;;;;;;;6.31;100.00;96566.59;5009097;28;104850;-67
2022/12/26 08:51:19;;;;;;;1.80;1.70;;;;;;;6.41;100.00;96556.34;5008135;28;105376;-67
2022/12/26 08:53:48;;;;;;;2.43;2.23;;;;;;;6.47;100.00;96554.66;5009035;28;101960;-67
2022/12/26 08:56:19;;;;;;;1.60;1.50;;;;;;;6.59;100.00;96566.09;5005668;28;104870;-67
2022/12/26 08:58:47;;;;;;;2.30;2.10;;;;;;;6.71;100.00;96561.69;4991743;28;103106;-67
2022/12/26 09:01:17;;;;;;;2.40;2.03;;;;;;;6.75;100.00;96562.84;5009072;28;102036;-67
2022/12/26 09:03:44;;;;;;;2.60;2.23;;;;;;;6.70;100.00;96565.38;5008003;28;105404;-67
2022/12/26 09:06:13;;;;;;;2.80;2.50;;;;;;;6.70;100.00;96563.50;5008783;28;101903;-67
2022/12/26 09:08:41;;;;;;;2.40;2.20;;;;;;;6.74;100.00;96562.06;5008553;28;105071;-67
2022/12/26 09:11:10;;;;;;;6.87;4.37;;;;;;;6.66;100.00;96564.19;5007822;28;105988;-67
2022/12/26 09:13:42;;;;;;;5.37;4.30;;;;;;;6.82;100.00;96568.88;5008414;28;101961;-67
2022/12/26 09:16:11;;;;;;;4.07;2.97;;;;;;;6.94;100.00;96567.91;5005474;28;105002;-67
2022/12/26 09:18:38;;;;;;;3.23;2.90;;;;;;;7.07;100.00;96575.66;4989010;28;104941;-67
2022/12/26 09:21:09;;;;;;;4.73;3.93;;;;;;;7.12;100.00;96567.88;5008858;28;101867;-67
2022/12/26 09:23:37;;;;;;;4.40;3.73;;;;;;;7.21;100.00;96563.06;5012504;28;104063;-67
2022/12/26 09:26:06;;;;;;;2.10;1.90;;;;;;;7.42;100.00;96562.56;5005492;28;101947;-67
2022/12/26 09:28:34;;;;;;;4.07;3.67;;;;;;;7.44;100.00;96563.94;4989567;28;102411;-67
2022/12/26 09:31:03;;;;;;;2.50;2.17;;;;;;;7.59;100.00;96560.88;5007948;28;105691;-67
2022/12/26 09:33:32;;;;;;;2.20;2.10;;;;;;;7.65;100.00;96560.78;5008413;28;101884;-68
2022/12/26 09:35:59;;;;;;;2.00;1.80;;;;;;;7.77;100.00;96564.25;5008122;28;105261;-68
2022/12/26 09:38:26;;;;;;;1.73;1.60;;;;;;;7.91;100.00;96567.47;5004392;28;105725;-68
2022/12/26 09:41:04;;;;;;;2.50;2.30;;;;;;;7.94;100.00;96575.75;5005694;28;102068;-68
2022/12/26 09:43:46;;;;;;;1.93;1.83;;;;;;;7.96;100.00;96552.50;5004511;28;103937;-67
2022/12/26 09:49:35;;;;;;;2.87;1.70;;;;;;;8.03;100.00;96569.09;4993966;28;102146;-67
2022/12/26 09:52:19;;;;;;;1.70;1.60;;;;;;;8.27;100.00;96549.53;5007753;28;105191;-67
2022/12/26 09:54:51;;;;;;;1.60;1.50;;;;;;;8.48;100.00;96554.25;5004644;28;103343;-67
2022/12/26 09:57:26;;;;;;;1.33;1.33;;;;;;;8.74;100.00;96539.66;5005233;28;105605;-67
2022/12/26 09:59:58;;;;;;;2.03;1.30;;;;;;;8.95;100.00;96550.41;4991552;28;105161;-67
2022/12/26 10:02:28;;;;;;;1.60;1.50;;;;;;;9.17;100.00;96534.66;4988090;28;101958;-67
2022/12/26 10:04:56;;;;;;;1.30;1.30;;;;;;;9.37;100.00;96553.63;4992147;28;105293;-67
2022/12/26 10:07:29;;;;;;;1.37;1.27;;;;;;;9.59;100.00;96541.25;5004022;28;105057;-67
2022/12/26 10:10:08;;;;;;;1.10;1.10;;;;;;;9.70;100.00;96540.38;4995890;28;102192;-67
2022/12/26 10:12:50;;;;;;;3.37;1.80;;;;;;;9.70;100.00;96532.41;5004194;28;105826;-67
2022/12/26 10:15:38;;;;;;;13.07;7.20;;;;;;;9.74;100.00;96531.69;5004665;28;103331;-67
2022/12/26 10:18:24;;;;;;;1.57;1.47;;;;;;;9.79;100.00;96529.09;5008051;28;103868;-67
2022/12/26 10:21:06;;;;;;;1.27;1.20;;;;;;;9.93;100.00;96537.56;5007548;28;105547;-67
2022/12/26 10:23:34;;;;;;;1.67;1.57;;;;;;;9.87;100.00;96522.59;5007580;28;102475;-65
2022/12/26 10:26:09;;;;;;;1.43;1.33;;;;;;;10.00;100.00;96517.75;5007767;28;105432;-61
2022/12/26 10:28:42;;;;;;;2.70;1.80;;;;;;;10.08;100.00;96511.25;5006578;28;105941;-62
2022/12/26 10:31:17;;;;;;;1.67;1.17;;;;;;;10.02;100.00;96520.13;4990895;28;101963;-60
2022/12/26 10:33:51;;;;;;;1.50;1.40;;;;;;;10.08;100.00;96522.66;5010461;28;105266;-65
2022/12/26 10:36:26;;;;;;;1.30;1.30;;;;;;;10.08;100.00;96505.94;5004415;28;101818;-63
2022/12/26 10:38:58;;;;;;;1.43;1.37;;;;;;;10.21;100.00;96500.28;4989196;28;105242;-63
2022/12/26 10:41:28;;;;;;;1.43;1.40;;;;;;;10.19;100.00;96505.81;4987348;28;105647;-64
2022/12/26 10:43:55;;;;;;;1.37;1.27;;;;;;;10.31;100.00;96509.16;4988717;28;104192;-63
2022/12/26 10:49:31;;;;;;;1.40;1.30;;;;;;;10.45;100.00;96498.97;5009531;28;104127;-65
2022/12/26 10:52:02;;;;;;;1.63;1.53;;;;;;;10.51;100.00;96500.66;5000537;28;101954;-65
2022/12/26 10:54:30;;;;;;;1.73;1.63;;;;;;;10.66;100.00;96484.91;5012005;28;102292;-65
2022/12/26 10:56:59;;;;;;;1.43;1.37;;;;;;;10.70;100.00;96476.19;5013256;28;102187;-65
2022/12/26 10:59:37;;;;;;;1.67;1.47;;;;;;;10.94;100.00;96468.72;5007437;28;105824;-65
2022/12/26 11:02:13;;;;;;;1.47;1.37;;;;;;;11.13;100.00;96472.66;4995615;28;103160;-65
2022/12/26 11:04:57;;;;;;;1.40;1.30;;;;;;;11.21;100.00;96474.84;5010489;28;102032;-65
2022/12/26 11:07:26;;;;;;;1.90;1.80;;;;;;;11.42;100.00;96476.63;5012044;28;102837;-65
2022/12/26 11:09:54;;;;;;;2.77;1.70;;;;;;;11.59;100.00;96464.03;5009296;28;104229;-65
2022/12/26 11:12:26;;;;;;;1.90;1.80;;;;;;;11.47;100.00;96458.88;5012111;28;101824;-65
2022/12/26 11:14:59;;;;;;;1.30;1.20;;;;;;;11.29;100.00;96469.09;5011325;28;102761;-65
2022/12/26 11:17:30;;;;;;;1.50;1.40;;;;;;;11.28;100.00;96470.13;4997310;28;105845;-65
2022/12/26 11:20:22;;;;;;;1.30;1.20;;;;;;;11.28;100.00;96465.59;5007397;28;103286;-65
2022/12/26 11:22:49;;;;;;;1.70;1.50;;;;;;;11.24;100.00;96467.16;4993844;28;102805;-64
2022/12/26 11:25:20;;;;;;;2.27;1.97;;;;;;;11.28;100.00;96476.25;5011727;28;101876;-64
2022/12/26 11:27:49;;;;;;;1.47;1.37;;;;;;;11.27;100.00;96479.16;5011249;28;102454;-65
2022/12/26 11:30:26;;;;;;;1.57;1.43;;;;;;;11.27;100.00;96466.66;5009828;28;105831;-65
2022/12/26 11:33:06;;;;;;;2.73;2.47;;;;;;;11.32;100.00;96466.72;5011829;28;101797;-65
2022/12/26 11:35:36;;;;;;;1.50;1.40;;;;;;;11.32;100.00;96468.56;5011478;28;102900;-65
2022/12/26 11:38:05;;;;;;;2.00;1.80;;;;;;;11.50;100.00;96462.88;5009544;28;103815;-65
2022/12/26 11:40:37;;;;;;;1.17;1.10;;;;;;;11.66;100.00;96461.97;5004009;28;101960;-65
2022/12/26 11:43:07;;;;;;;1.67;1.57;;;;;;;11.67;100.00;96459.03;4999786;28;106159;-65
2022/12/26 11:45:43;;;;;;;1.50;1.40;;;;;;;11.77;100.00;96458.31;5006483;28;102403;-65
2022/12/26 11:48:21;;;;;;;1.70;1.60;;;;;;;11.85;100.00;96444.50;4991861;28;102346;-65
2022/12/26 11:50:51;;;;;;;1.70;1.50;;;;;;;11.91;100.00;96443.47;5001637;28;103701;-65
2022/12/26 11:53:23;;;;;;;1.60;1.50;;;;;;;11.90;100.00;96437.38;5010994;28;101892;-65
2022/12/26 11:55:59;;;;;;;1.80;1.70;;;;;;;11.93;100.00;96426.19;5011219;28;102876;-64
2022/12/26 11:58:29;;;;;;;1.70;1.60;;;;;;;11.92;100.00;96426.44;5002530;28;105404;-64
2022/12/26 12:01:15;;;;;;;2.10;1.53;;;;;;;11.86;100.00;96420.28;4990771;28;102171;-65
2022/12/26 12:03:44;;;;;;;5.23;2.80;;;;;;;11.82;100.00;96424.50;4996995;28;105641;-65
2022/12/26 12:06:37;;;;;;;2.17;2.00;;;;;;;11.83;100.00;96428.78;5010864;28;101833;-65
2022/12/26 12:09:13;;;;;;;1.60;1.50;;;;;;;11.80;100.00;96437.31;5010815;28;102518;-65
2022/12/26 12:11:50;;;;;;;1.57;1.47;;;;;;;11.80;100.00;96447.13;5010293;28;102597;-65
2022/12/26 12:14:30;;;;;;;1.27;1.27;;;;;;;11.73;100.00;96436.69;5005486;28;102136;-65
2022/12/26 12:17:05;;;;;;;1.57;1.47;;;;;;;11.74;100.00;96442.84;5004629;28;105789;-65
2022/12/26 12:19:46;;;;;;;1.80;1.70;;;;;;;11.73;100.00;96430.59;4996970;28;105121;-65
2022/12/26 12:22:34;;;;;;;1.50;1.40;;;;;;;11.67;100.00;96436.94;4990807;28;102255;-65
2022/12/26 12:25:21;;;;;;;2.97;2.77;;;;;;;11.61;100.00;96446.75;5005629;28;102294;-65
2022/12/26 12:27:56;;;;;;;2.60;2.40;;;;;;;11.55;100.00;96452.28;4991523;28;106021;-65
2022/12/26 12:30:26;;;;;;;3.80;3.50;;;;;;;11.42;100.00;96458.00;4990687;28;102804;-65
2022/12/26 12:33:13;;;;;;;3.77;3.37;;;;;;;11.41;100.00;96459.06;5003600;28;105818;-65
2022/12/26 12:35:50;;;;;;;3.30;3.00;;;;;;;11.37;100.00;96466.75;4993045;28;102030;-65
2022/12/26 12:38:27;;;;;;;1.67;1.57;;;;;;;11.34;100.00;96458.47;4991303;28;102585;-65
2022/12/26 12:41:06;;;;;;;1.20;1.20;;;;;;;11.32;100.00;96465.91;4989891;28;102716;-65
2022/12/26 12:43:43;;;;;;;2.07;1.87;;;;;;;11.22;100.00;96471.13;4993340;28;102218;-65
2022/12/26 12:46:22;;;;;;;1.90;1.80;;;;;;;11.12;100.00;96476.38;5008726;28;105887;-65
2022/12/26 12:49:17;;;;;;;2.30;2.10;;;;;;;10.99;100.00;96476.75;5004788;28;105618;-65
2022/12/26 12:51:52;;;;;;;1.97;1.80;;;;;;;10.94;100.00;96497.97;5007276;28;102089;-65
2022/12/26 12:54:36;;;;;;;1.60;1.50;;;;;;;10.89;100.00;96503.25;5004722;28;103924;-65
2022/12/26 12:57:13;;;;;;;1.50;1.40;;;;;;;10.90;100.00;96510.19;5007715;28;102313;-65
2022/12/26 12:59:49;;;;;;;1.90;1.80;;;;;;;10.83;100.00;96520.19;5010152;28;102503;-65
2022/12/26 13:02:25;;;;;;;11.63;9.63;;;;;;;10.74;100.00;96514.50;5009617;28;102536;-65
2022/12/26 13:04:59;;;;;;;6.20;4.83;;;;;;;10.69;100.00;96535.72;5005245;28;103721;-65
2022/12/26 13:07:33;;;;;;;2.10;1.90;;;;;;;10.73;100.00;96530.72;4991728;28;102559;-65
2022/12/26 13:10:06;;;;;;;3.23;2.93;;;;;;;10.64;100.00;96561.47;5007512;28;104269;-65
2022/12/26 13:12:39;;;;;;;1.83;1.70;;;;;;;10.65;100.00;96569.22;5011071;28;103612;-65
2022/12/26 13:15:09;;;;;;;1.93;1.83;;;;;;;10.61;100.00;96575.25;5007955;28;105494;-65
2022/12/26 13:17:46;;;;;;;2.90;2.70;;;;;;;10.54;100.00;96586.09;5008161;28;101889;-65
2022/12/26 13:20:18;;;;;;;18.77;14.73;;;;;;;10.48;100.00;96587.03;5008483;28;103795;-65
2022/12/26 13:25:42;;;;;;;5.20;4.17;;;;;;;10.46;100.00;96585.69;5008256;28;102192;-65
2022/12/26 13:28:16;;;;;;;2.50;2.30;;;;;;;10.47;100.00;96589.97;5007411;28;104098;-65
2022/12/26 13:30:43;;;;;;;4.87;4.47;;;;;;;10.43;100.00;96610.91;5009249;28;102709;-65
2022/12/26 13:33:16;;;;;;;2.73;2.53;;;;;;;10.40;100.00;96613.22;5008695;28;101959;-65
2022/12/26 13:35:53;;;;;;;2.77;2.57;;;;;;;10.40;100.00;96616.72;5012124;28;102448;-65
2022/12/26 13:38:21;;;;;;;5.70;3.80;;;;;;;10.39;100.00;96624.91;5008124;28;101940;-65
2022/12/26 13:43:53;;;;;;;5.67;4.70;;;;;;;10.33;100.00;96615.25;5009607;28;102588;-65
2022/12/26 13:44:01;;;;;;;3.47;3.17;;;;;;;10.48;100.00;96623.47;5008666;28;103001;-65
2022/12/26 13:46:38;;;;;;;2.50;2.30;;;;;;;10.74;100.00;96617.47;5009539;28;101846;-65
2022/12/26 13:49:05;;;;;;;2.07;1.90;;;;;;;10.95;100.00;96625.44;5009528;28;102309;-65
2022/12/26 13:51:52;;;;;;;2.30;2.10;;;;;;;11.09;100.00;96644.53;5008483;28;102661;-65
2022/12/26 13:54:22;;;;;;;2.10;2.00;;;;;;;11.35;100.00;96641.13;5004103;28;102100;-65